Time;durP1;ratioP1;P1;durP2;ratioP2;P2;SDS_P1;SDS_P2;PMS_P1;PMS_P2;Temp;Humidity;BMP_temperature;BMP_pressure;BME280_temperature;BME280_humidity;BME280_pressure;Samples;Min_cycle;Max_cycle;Signal;HPM_P1;HPM_P2
2021/09/21 00:00:32;;;;;;;1.60;1.50;;;14.10;98.00;;;;;;5090670;28;20454;-69
2021/09/21 00:02:59;;;;;;;1.77;1.60;;;14.30;98.00;;;;;;5090918;28;20847;-70
2021/09/21 00:05:27;;;;;;;2.47;2.17;;;14.30;98.00;;;;;;5090814;28;20488;-70
2021/09/21 00:07:54;;;;;;;1.47;1.30;;;14.30;98.00;;;;;;5089433;28;20562;-69
2021/09/21 00:10:21;;;;;;;2.37;1.50;;;14.20;98.00;;;;;;5090739;28;20485;-68
2021/09/21 00:12:48;;;;;;;1.63;1.60;;;14.10;98.00;;;;;;5090711;28;20509;-70
2021/09/21 00:15:16;;;;;;;2.90;1.90;;;14.00;98.00;;;;;;5090783;28;20463;-68
2021/09/21 00:17:46;;;;;;;2.73;1.87;;;14.00;98.00;;;;;;5090764;28;20476;-69
2021/09/21 00:20:15;;;;;;;2.17;1.77;;;13.90;98.00;;;;;;5090537;28;20456;-69
2021/09/21 00:22:42;;;;;;;1.50;1.50;;;13.90;98.00;;;;;;5090783;28;20471;-70
2021/09/21 00:25:11;;;;;;;2.27;1.80;;;13.90;98.00;;;;;;5090592;28;20459;-68
2021/09/21 00:27:41;;;;;;;1.57;1.30;;;13.80;98.00;;;;;;5090340;28;20575;-69
2021/09/21 00:30:11;;;;;;;3.40;1.57;;;13.80;98.00;;;;;;5090514;28;20449;-69
2021/09/21 00:32:38;;;;;;;2.27;1.97;;;13.90;98.00;;;;;;5090653;28;20456;-69
2021/09/21 00:35:07;;;;;;;2.50;1.80;;;14.00;98.00;;;;;;5090599;28;20955;-68
2021/09/21 00:37:34;;;;;;;4.07;2.00;;;14.00;98.00;;;;;;5090643;28;20496;-68
2021/09/21 00:40:01;;;;;;;2.23;1.63;;;14.00;98.00;;;;;;5090329;28;20555;-69
2021/09/21 00:42:31;;;;;;;2.70;1.93;;;14.00;98.00;;;;;;5090605;28;20508;-71
2021/09/21 00:45:04;;;;;;;1.80;1.67;;;13.90;98.00;;;;;;5090425;28;20456;-68
2021/09/21 00:47:33;;;;;;;1.30;1.30;;;14.00;98.00;;;;;;5089386;28;20480;-69
2021/09/21 00:50:00;;;;;;;2.07;1.90;;;13.90;98.00;;;;;;5090683;28;20499;-70
2021/09/21 00:52:29;;;;;;;1.70;1.40;;;13.90;98.00;;;;;;5091013;28;20457;-69
2021/09/21 00:54:56;;;;;;;1.50;1.30;;;13.90;98.00;;;;;;5090640;28;20946;-68
2021/09/21 00:57:24;;;;;;;1.90;1.83;;;13.90;98.00;;;;;;5090563;28;20509;-69
2021/09/21 00:59:51;;;;;;;1.60;1.20;;;13.90;98.00;;;;;;5089012;28;20872;-69
2021/09/21 01:02:21;;;;;;;2.83;1.77;;;13.90;98.00;;;;;;5091521;28;20873;-69
2021/09/21 01:04:48;;;;;;;1.80;1.50;;;13.90;98.00;;;;;;5090228;28;20496;-69
2021/09/21 01:07:15;;;;;;;2.23;1.53;;;13.90;98.00;;;;;;5091318;28;21036;-68
2021/09/21 01:09:44;;;;;;;1.57;1.33;;;13.90;98.00;;;;;;5090637;28;20501;-69
2021/09/21 01:12:11;;;;;;;2.07;1.80;;;13.90;98.00;;;;;;5091644;28;20449;-68
2021/09/21 01:14:38;;;;;;;5.43;1.77;;;13.90;98.00;;;;;;5093949;28;21044;-68
2021/09/21 01:17:05;;;;;;;1.60;1.40;;;13.90;98.00;;;;;;5092670;28;20504;-68
2021/09/21 01:19:35;;;;;;;2.23;1.80;;;13.90;98.00;;;;;;5093816;28;20494;-69
2021/09/21 01:22:05;;;;;;;2.37;1.87;;;14.00;98.00;;;;;;5093793;28;20524;-69
2021/09/21 01:24:33;;;;;;;1.77;1.60;;;14.10;98.00;;;;;;5093688;28;20456;-68
2021/09/21 01:27:00;;;;;;;2.20;1.60;;;14.30;98.00;;;;;;5093636;28;20522;-67
2021/09/21 01:29:27;;;;;;;1.50;1.40;;;14.40;98.00;;;;;;5093563;28;20947;-70
2021/09/21 01:31:54;;;;;;;3.30;1.80;;;14.40;98.00;;;;;;5093553;28;20459;-69
2021/09/21 01:34:22;;;;;;;2.17;1.57;;;14.40;98.00;;;;;;5093448;28;20727;-69
2021/09/21 01:36:49;;;;;;;3.10;1.77;;;14.40;98.00;;;;;;5093619;28;20481;-68
2021/09/21 01:39:18;;;;;;;1.40;1.30;;;14.50;98.00;;;;;;5091958;28;20457;-70
2021/09/21 01:41:46;;;;;;;1.70;1.60;;;14.40;98.00;;;;;;5093511;28;20546;-68
2021/09/21 01:44:16;;;;;;;2.27;1.93;;;14.20;98.00;;;;;;5093286;28;20485;-68
2021/09/21 01:46:45;;;;;;;1.87;1.50;;;14.30;98.00;;;;;;5093634;28;20457;-68
2021/09/21 01:49:14;;;;;;;2.73;2.00;;;14.20;98.00;;;;;;5093261;28;20491;-69
2021/09/21 01:51:45;;;;;;;2.37;1.50;;;14.10;98.00;;;;;;5093361;28;20797;-68
2021/09/21 01:54:17;;;;;;;1.83;1.40;;;14.10;98.00;;;;;;5093230;28;20518;-69
2021/09/21 01:59:29;;;;;;;2.13;1.83;;;13.90;98.00;;;;;;5092980;28;20435;-68
2021/09/21 02:01:57;;;;;;;1.80;1.60;;;13.90;98.00;;;;;;5093156;28;20865;-70
2021/09/21 02:04:24;;;;;;;1.77;1.70;;;13.90;98.00;;;;;;5092994;28;20586;-69
2021/09/21 02:06:53;;;;;;;2.13;1.60;;;13.90;98.00;;;;;;5093125;28;20504;-69
2021/09/21 02:09:21;;;;;;;2.03;1.70;;;14.00;98.00;;;;;;5092915;28;20566;-68
2021/09/21 02:11:50;;;;;;;2.23;1.80;;;14.00;98.00;;;;;;5093117;28;20535;-68
2021/09/21 02:14:18;;;;;;;2.13;1.63;;;14.10;98.00;;;;;;5093000;28;20484;-68
2021/09/21 02:16:45;;;;;;;2.00;1.43;;;14.10;98.00;;;;;;5092879;28;20460;-68
2021/09/21 02:19:13;;;;;;;2.00;1.80;;;14.00;98.00;;;;;;5092681;28;20524;-70
2021/09/21 02:21:40;;;;;;;1.63;1.50;;;14.00;98.00;;;;;;5091510;28;20514;-69
2021/09/21 02:24:07;;;;;;;1.60;1.60;;;14.00;98.00;;;;;;5092401;28;20454;-70
2021/09/21 02:26:34;;;;;;;1.80;1.60;;;14.00;98.00;;;;;;5092721;28;20469;-68
2021/09/21 02:29:03;;;;;;;2.43;1.60;;;14.00;98.00;;;;;;5092391;28;20518;-69
2021/09/21 02:31:30;;;;;;;2.53;1.73;;;13.90;98.00;;;;;;5091240;28;20757;-69
2021/09/21 02:33:57;;;;;;;3.13;2.20;;;14.00;98.00;;;;;;5092323;28;20461;-68
2021/09/21 02:36:24;;;;;;;1.70;1.60;;;13.90;98.00;;;;;;5091086;28;20690;-69
2021/09/21 02:38:54;;;;;;;1.40;1.40;;;13.80;98.00;;;;;;5091259;28;20453;-69
2021/09/21 02:41:21;;;;;;;2.83;1.70;;;13.80;98.00;;;;;;5092196;28;20807;-69
2021/09/21 02:43:48;;;;;;;1.63;1.33;;;13.80;98.00;;;;;;5092167;28;20489;-68
2021/09/21 02:46:17;;;;;;;5.90;2.10;;;14.00;98.00;;;;;;5091923;28;20452;-68
2021/09/21 02:48:44;;;;;;;2.37;1.70;;;14.00;98.00;;;;;;5091935;28;20521;-68
2021/09/21 02:51:11;;;;;;;2.43;1.93;;;14.10;98.00;;;;;;5092030;28;20494;-68
2021/09/21 02:53:38;;;;;;;1.97;1.70;;;13.90;98.00;;;;;;5090468;28;20880;-69
2021/09/21 02:56:05;;;;;;;1.43;1.40;;;13.80;98.00;;;;;;5091754;28;20465;-69
2021/09/21 02:58:32;;;;;;;1.40;1.30;;;13.90;98.00;;;;;;5091950;28;20446;-68
2021/09/21 03:01:00;;;;;;;1.80;1.50;;;13.80;98.00;;;;;;5090686;28;20453;-69
2021/09/21 03:03:31;;;;;;;2.60;1.60;;;13.80;98.00;;;;;;5091875;28;20457;-68
2021/09/21 03:06:04;;;;;;;1.83;1.77;;;13.80;98.00;;;;;;5091717;28;20454;-68
2021/09/21 03:08:34;;;;;;;1.70;1.60;;;13.80;98.00;;;;;;5090654;28;20482;-69
2021/09/21 03:11:16;;;;;;;3.20;2.07;;;13.90;98.00;;;;;;5090616;28;20458;-69
2021/09/21 03:19:09;;;;;;;2.50;2.07;;;13.80;98.00;;;;;;5091759;28;20444;-69
2021/09/21 03:21:36;;;;;;;2.90;1.77;;;13.80;98.00;;;;;;5091695;28;20529;-69
2021/09/21 03:24:03;;;;;;;1.63;1.50;;;13.80;98.00;;;;;;5091701;28;20463;-68
2021/09/21 03:26:30;;;;;;;2.10;1.70;;;13.90;98.00;;;;;;5091347;28;20460;-68
2021/09/21 03:28:57;;;;;;;2.37;1.90;;;13.70;98.00;;;;;;5091517;28;20511;-69
2021/09/21 03:31:24;;;;;;;7.57;2.03;;;13.70;98.00;;;;;;5091320;28;20512;-67
2021/09/21 03:33:51;;;;;;;1.43;1.37;;;13.60;98.00;;;;;;5091229;28;20515;-69
2021/09/21 03:36:20;;;;;;;1.70;1.47;;;13.60;98.00;;;;;;5091565;28;20468;-68
2021/09/21 03:38:47;;;;;;;3.40;2.27;;;13.60;98.00;;;;;;5091395;28;20459;-69
2021/09/21 03:41:14;;;;;;;3.23;2.00;;;13.70;98.00;;;;;;5091091;28;21018;-69
2021/09/21 03:43:42;;;;;;;1.90;1.47;;;13.70;98.00;;;;;;5091330;28;20537;-68
2021/09/21 03:46:09;;;;;;;1.33;1.30;;;13.50;98.00;;;;;;5089798;28;20959;-70
2021/09/21 03:48:37;;;;;;;5.23;2.50;;;13.60;98.00;;;;;;5091030;28;20485;-69
2021/09/21 03:51:04;;;;;;;2.50;1.77;;;13.80;98.00;;;;;;5090341;28;20531;-69
2021/09/21 03:53:32;;;;;;;1.63;1.50;;;13.80;98.00;;;;;;5090933;28;20514;-69
2021/09/21 03:55:59;;;;;;;2.03;1.60;;;13.90;98.00;;;;;;5090947;28;20879;-69
2021/09/21 03:58:26;;;;;;;1.70;1.57;;;13.90;98.00;;;;;;5090987;28;20497;-68
2021/09/21 04:00:54;;;;;;;2.20;1.60;;;13.90;98.00;;;;;;5091339;28;20485;-70
2021/09/21 04:03:20;;;;;;;1.50;1.30;;;14.00;98.00;;;;;;5090581;28;20490;-69
2021/09/21 04:05:47;;;;;;;1.97;1.73;;;13.90;98.00;;;;;;5090798;28;20458;-69
2021/09/21 04:08:15;;;;;;;1.73;1.60;;;13.80;98.00;;;;;;5090678;28;20512;-69
2021/09/21 04:10:43;;;;;;;2.77;2.27;;;13.70;98.00;;;;;;5090689;28;20461;-68
2021/09/21 04:13:10;;;;;;;1.40;1.40;;;13.60;98.00;;;;;;5090634;28;20548;-69
2021/09/21 04:15:40;;;;;;;5.07;1.87;;;13.40;98.00;;;;;;5090660;28;20485;-67
2021/09/21 04:18:08;;;;;;;1.80;1.40;;;13.30;98.00;;;;;;5090326;28;20491;-68
2021/09/21 04:20:35;;;;;;;2.57;1.80;;;13.20;98.00;;;;;;5090599;28;20514;-68
2021/09/21 04:23:03;;;;;;;3.10;1.63;;;13.20;98.00;;;;;;5090751;28;20522;-69
2021/09/21 04:25:31;;;;;;;2.03;1.60;;;13.20;98.00;;;;;;5090682;28;20454;-68
2021/09/21 04:27:59;;;;;;;1.57;1.20;;;13.20;98.00;;;;;;5090574;28;20989;-70
2021/09/21 04:30:26;;;;;;;3.30;2.20;;;13.30;98.00;;;;;;5090582;28;20963;-69
2021/09/21 04:32:54;;;;;;;2.80;1.87;;;13.40;98.00;;;;;;5090613;28;20546;-68
2021/09/21 04:35:21;;;;;;;2.50;1.60;;;13.30;98.00;;;;;;5090409;28;20519;-68
2021/09/21 04:37:49;;;;;;;4.00;1.73;;;13.20;98.00;;;;;;5090582;28;20488;-69
2021/09/21 04:40:16;;;;;;;1.53;1.40;;;13.20;98.00;;;;;;5090579;28;20979;-69
2021/09/21 04:42:52;;;;;;;1.50;1.30;;;13.10;98.00;;;;;;5090603;28;20483;-69
2021/09/21 04:45:21;;;;;;;1.90;1.70;;;13.00;98.00;;;;;;5090448;28;20816;-68
2021/09/21 04:47:50;;;;;;;2.57;1.90;;;13.10;98.00;;;;;;5094163;28;20451;-68
2021/09/21 04:50:17;;;;;;;2.40;1.73;;;13.30;98.00;;;;;;5094273;28;20568;-69
2021/09/21 04:52:44;;;;;;;2.30;1.67;;;13.50;98.00;;;;;;5094362;28;20549;-69
2021/09/21 04:55:11;;;;;;;2.33;1.70;;;13.50;98.00;;;;;;5094580;28;20482;-68
2021/09/21 04:57:38;;;;;;;2.33;1.40;;;13.30;98.00;;;;;;5094645;28;20496;-68
2021/09/21 05:00:06;;;;;;;1.40;1.20;;;13.40;98.00;;;;;;5094226;28;20484;-69
2021/09/21 05:02:36;;;;;;;2.00;1.50;;;13.30;98.00;;;;;;5094079;28;20523;-69
2021/09/21 05:05:04;;;;;;;2.90;1.60;;;13.40;98.00;;;;;;5093808;28;21030;-69
2021/09/21 05:07:31;;;;;;;2.30;2.10;;;13.30;98.00;;;;;;5093996;28;20822;-68
2021/09/21 05:09:58;;;;;;;2.00;1.60;;;13.30;98.00;;;;;;5093945;28;20936;-69
2021/09/21 05:12:25;;;;;;;1.30;1.20;;;13.30;98.00;;;;;;5093954;28;20519;-68
2021/09/21 05:14:52;;;;;;;2.80;1.83;;;13.40;98.00;;;;;;5093986;28;20451;-68
2021/09/21 05:17:19;;;;;;;3.37;2.13;;;13.50;98.00;;;;;;5092619;28;20535;-68
2021/09/21 05:19:48;;;;;;;2.97;1.23;;;13.60;98.00;;;;;;5093898;28;20727;-68
2021/09/21 05:22:15;;;;;;;2.83;1.47;;;13.70;98.00;;;;;;5093783;28;20525;-68
2021/09/21 05:24:42;;;;;;;1.67;1.57;;;13.60;98.00;;;;;;5093671;28;20482;-68
2021/09/21 05:27:08;;;;;;;2.03;1.73;;;13.40;98.00;;;;;;5093871;28;20480;-67
2021/09/21 05:29:35;;;;;;;1.50;1.20;;;13.20;98.00;;;;;;5093503;28;20531;-69
2021/09/21 05:32:04;;;;;;;2.13;1.70;;;13.10;98.00;;;;;;5093630;28;20491;-69
2021/09/21 05:34:31;;;;;;;1.33;1.33;;;13.00;98.00;;;;;;5093356;28;20544;-68
2021/09/21 05:36:59;;;;;;;2.47;1.60;;;12.90;98.00;;;;;;5092137;28;20452;-68
2021/09/21 05:39:27;;;;;;;2.50;1.67;;;12.90;98.00;;;;;;5093356;28;20547;-68
2021/09/21 05:41:54;;;;;;;1.70;1.50;;;12.90;98.00;;;;;;5092407;28;20505;-68
2021/09/21 05:44:21;;;;;;;1.60;1.40;;;13.00;98.00;;;;;;5093111;28;20473;-68
2021/09/21 05:46:48;;;;;;;1.63;1.33;;;13.00;98.00;;;;;;5093297;28;20507;-68
2021/09/21 05:49:15;;;;;;;1.57;1.47;;;13.10;98.00;;;;;;5092931;28;20892;-69
2021/09/21 05:51:42;;;;;;;2.67;1.63;;;13.00;98.00;;;;;;5093243;28;20510;-70
2021/09/21 05:54:11;;;;;;;2.17;1.80;;;13.10;98.00;;;;;;5093167;28;20814;-68
2021/09/21 05:56:38;;;;;;;1.80;1.50;;;13.10;98.00;;;;;;5091601;28;20489;-69
2021/09/21 05:59:05;;;;;;;2.43;1.60;;;13.10;98.00;;;;;;5093071;28;20920;-68
2021/09/21 06:01:32;;;;;;;1.50;1.50;;;13.20;98.00;;;;;;5091583;28;20978;-69
2021/09/21 06:03:59;;;;;;;1.87;1.70;;;13.20;98.00;;;;;;5092864;28;20978;-69
2021/09/21 06:06:26;;;;;;;2.37;1.50;;;13.20;98.00;;;;;;5092664;28;20642;-70
2021/09/21 06:08:53;;;;;;;3.10;1.60;;;13.20;98.00;;;;;;5092705;28;20487;-68
2021/09/21 06:11:27;;;;;;;2.80;1.93;;;13.10;98.00;;;;;;5093018;28;20539;-69
2021/09/21 06:13:59;;;;;;;1.50;1.30;;;13.10;98.00;;;;;;5093026;28;20845;-71
2021/09/21 06:16:26;;;;;;;2.17;1.53;;;13.10;98.00;;;;;;5091559;28;20980;-68
2021/09/21 06:18:56;;;;;;;1.83;1.67;;;13.10;98.00;;;;;;5092966;28;20451;-68
2021/09/21 06:21:24;;;;;;;2.03;1.30;;;13.30;98.00;;;;;;5075193;28;20494;-69
2021/09/21 06:23:51;;;;;;;4.90;1.30;;;13.30;98.00;;;;;;5092680;28;20462;-68
2021/09/21 06:26:19;;;;;;;2.00;1.87;;;13.30;98.00;;;;;;5092563;28;20527;-68
2021/09/21 06:28:47;;;;;;;2.87;2.10;;;13.20;98.00;;;;;;5092442;28;20481;-69
2021/09/21 06:31:14;;;;;;;2.40;1.23;;;13.20;98.00;;;;;;5092624;28;20458;-68
2021/09/21 06:33:41;;;;;;;2.07;1.47;;;13.30;98.00;;;;;;5092359;28;20506;-70
2021/09/21 06:36:09;;;;;;;1.87;1.47;;;13.30;98.00;;;;;;5092333;28;20509;-69
2021/09/21 06:38:38;;;;;;;1.50;1.50;;;13.50;98.00;;;;;;5092194;28;20878;-69
2021/09/21 06:41:05;;;;;;;2.17;1.60;;;13.50;98.00;;;;;;5092084;28;20484;-69
2021/09/21 06:43:32;;;;;;;2.10;1.70;;;13.60;98.00;;;;;;5092130;28;20494;-69
2021/09/21 06:46:01;;;;;;;2.07;1.60;;;13.70;98.00;;;;;;5092148;28;20513;-69
2021/09/21 06:48:28;;;;;;;1.60;1.47;;;13.80;98.00;;;;;;5091943;28;20449;-69
2021/09/21 06:50:56;;;;;;;1.83;1.53;;;13.70;98.00;;;;;;5091991;28;20946;-69
2021/09/21 06:53:23;;;;;;;2.90;1.67;;;13.70;98.00;;;;;;5092003;28;20466;-70
2021/09/21 06:55:50;;;;;;;1.50;1.47;;;13.80;98.00;;;;;;5092045;28;20880;-69
2021/09/21 06:58:17;;;;;;;1.80;1.70;;;14.00;98.00;;;;;;5092023;28;20461;-69
2021/09/21 07:00:45;;;;;;;2.13;1.67;;;13.90;98.00;;;;;;5091996;28;20870;-69
2021/09/21 07:03:14;;;;;;;1.37;1.33;;;13.90;98.00;;;;;;5091912;28;20959;-69
2021/09/21 07:05:41;;;;;;;2.43;1.60;;;14.00;98.00;;;;;;5091944;28;20531;-69
2021/09/21 07:08:08;;;;;;;2.30;1.60;;;14.20;98.00;;;;;;5091384;28;20509;-69
2021/09/21 07:10:36;;;;;;;1.67;1.47;;;14.30;98.00;;;;;;5091347;28;20518;-69
2021/09/21 07:13:03;;;;;;;1.93;1.70;;;14.50;98.00;;;;;;5092955;28;20454;-69
2021/09/21 07:15:30;;;;;;;2.23;1.90;;;14.50;98.00;;;;;;5092034;28;20455;-69
2021/09/21 07:17:57;;;;;;;3.37;1.80;;;14.60;98.00;;;;;;5092254;28;20968;-69
2021/09/21 07:20:27;;;;;;;1.90;1.60;;;14.70;98.00;;;;;;5092343;28;20496;-69
2021/09/21 07:22:54;;;;;;;1.83;1.40;;;14.60;98.00;;;;;;5091720;28;20492;-69
2021/09/21 07:25:22;;;;;;;1.30;1.20;;;14.60;98.00;;;;;;5091588;28;20517;-69
2021/09/21 07:27:51;;;;;;;2.60;1.63;;;14.60;98.00;;;;;;5091540;28;20451;-68
2021/09/21 07:30:18;;;;;;;1.50;1.30;;;14.40;98.00;;;;;;5091566;28;20482;-69
2021/09/21 07:32:46;;;;;;;2.50;1.50;;;14.30;98.00;;;;;;5091512;28;20496;-68
2021/09/21 07:35:13;;;;;;;1.67;1.57;;;14.40;98.00;;;;;;5091286;28;20564;-69
2021/09/21 07:37:41;;;;;;;1.63;1.60;;;14.50;98.00;;;;;;5091545;28;20457;-69
2021/09/21 07:40:10;;;;;;;1.60;1.20;;;14.50;98.00;;;;;;5091557;28;20789;-69
2021/09/21 07:42:37;;;;;;;1.80;1.53;;;14.60;98.00;;;;;;5091581;28;20586;-69
2021/09/21 07:45:08;;;;;;;1.60;1.53;;;14.80;98.00;;;;;;5088593;28;20494;-72
2021/09/21 07:47:35;;;;;;;3.53;1.93;;;14.90;98.00;;;;;;5088346;28;20524;-70
2021/09/21 07:50:02;;;;;;;2.43;1.87;;;15.00;98.00;;;;;;5085996;28;20541;-70
2021/09/21 07:52:30;;;;;;;2.87;1.50;;;15.00;98.00;;;;;;5087616;28;20449;-70
2021/09/21 07:54:59;;;;;;;1.40;1.30;;;15.00;98.00;;;;;;5080242;28;20457;-70
2021/09/21 07:57:26;;;;;;;1.50;1.47;;;15.20;98.00;;;;;;5088421;28;20551;-70
2021/09/21 07:59:53;;;;;;;2.07;1.33;;;15.30;98.00;;;;;;5079808;28;20533;-70
2021/09/21 08:02:22;;;;;;;2.60;1.70;;;15.50;98.00;;;;;;5088460;28;21024;-70
2021/09/21 08:04:49;;;;;;;1.50;1.40;;;15.60;97.20;;;;;;5088325;28;20959;-70
2021/09/21 08:07:17;;;;;;;1.73;1.33;;;15.70;95.60;;;;;;5088262;28;20552;-71
2021/09/21 08:09:45;;;;;;;1.97;1.70;;;15.80;95.40;;;;;;5088217;28;20493;-70
2021/09/21 08:12:14;;;;;;;2.23;1.40;;;15.90;94.80;;;;;;5088231;28;20460;-70
2021/09/21 08:14:41;;;;;;;3.40;1.30;;;16.00;95.30;;;;;;5088346;28;20466;-69
2021/09/21 08:17:08;;;;;;;1.60;1.60;;;16.10;95.40;;;;;;5088289;28;20508;-70
2021/09/21 08:19:36;;;;;;;1.30;1.20;;;16.20;95.70;;;;;;5086810;28;20528;-71
2021/09/21 08:22:03;;;;;;;3.13;1.60;;;16.30;95.10;;;;;;5092455;28;20511;-69
2021/09/21 08:24:30;;;;;;;3.53;1.33;;;16.30;95.00;;;;;;5092522;28;20491;-71
2021/09/21 08:26:57;;;;;;;1.83;1.20;;;16.40;93.10;;;;;;5092122;28;20836;-70
2021/09/21 08:29:25;;;;;;;3.60;1.77;;;16.50;93.50;;;;;;5090847;28;20519;-71
2021/09/21 08:31:53;;;;;;;1.90;1.33;;;16.60;92.60;;;;;;5092198;28;20451;-70
2021/09/21 08:34:19;;;;;;;3.47;1.87;;;16.50;93.20;;;;;;5091190;28;20453;-71
2021/09/21 08:36:49;;;;;;;2.03;1.50;;;16.50;92.50;;;;;;5092307;28;20457;-70
2021/09/21 08:39:16;;;;;;;1.60;1.50;;;16.60;92.00;;;;;;5092296;28;20465;-70
2021/09/21 08:41:43;;;;;;;1.67;1.20;;;16.70;91.80;;;;;;5092592;28;20462;-70
2021/09/21 08:44:11;;;;;;;1.60;1.17;;;16.80;93.10;;;;;;5090784;28;20865;-70
2021/09/21 08:46:40;;;;;;;4.03;1.67;;;16.80;92.30;;;;;;5090922;28;20455;-70
2021/09/21 08:49:07;;;;;;;1.57;1.40;;;16.80;91.20;;;;;;5091570;28;20512;-70
2021/09/21 08:51:34;;;;;;;1.67;1.30;;;16.90;91.70;;;;;;5090818;28;20471;-70
2021/09/21 08:54:01;;;;;;;1.50;1.40;;;17.00;91.50;;;;;;5092115;28;20479;-70
2021/09/21 08:56:28;;;;;;;2.17;1.80;;;17.10;91.80;;;;;;5091679;28;20462;-70
2021/09/21 08:59:04;;;;;;;1.60;1.57;;;17.20;92.10;;;;;;5091874;28;20529;-70
2021/09/21 09:01:41;;;;;;;3.07;1.93;;;17.30;91.10;;;;;;5091921;28;20466;-72
2021/09/21 09:04:08;;;;;;;2.50;1.63;;;17.50;90.60;;;;;;5091934;28;20699;-70
2021/09/21 09:06:43;;;;;;;1.63;1.57;;;17.60;90.50;;;;;;5091726;28;20888;-71
2021/09/21 09:09:15;;;;;;;1.83;1.63;;;17.80;89.60;;;;;;5083631;28;20504;-70
2021/09/21 09:11:47;;;;;;;3.17;2.00;;;17.80;88.50;;;;;;5091294;28;20513;-70
2021/09/21 09:14:19;;;;;;;2.37;1.63;;;17.90;88.70;;;;;;5090852;28;20508;-68
2021/09/21 09:17:04;;;;;;;1.90;1.90;;;17.80;89.10;;;;;;5091584;28;20456;-69
2021/09/21 09:19:34;;;;;;;2.67;1.57;;;17.90;88.70;;;;;;5091568;28;20946;-69
2021/09/21 09:22:06;;;;;;;2.27;1.77;;;17.80;89.20;;;;;;5091795;28;20866;-70
2021/09/21 09:24:45;;;;;;;1.53;1.50;;;17.50;89.20;;;;;;5091877;28;20463;-70
2021/09/21 09:27:12;;;;;;;1.80;1.30;;;17.40;88.20;;;;;;5091453;28;20820;-70
2021/09/21 09:29:53;;;;;;;1.50;1.40;;;17.50;91.20;;;;;;5091152;28;20491;-70
2021/09/21 09:32:23;;;;;;;3.00;2.23;;;17.70;90.20;;;;;;5089199;28;20822;-69
2021/09/21 09:34:59;;;;;;;2.37;1.73;;;17.90;89.20;;;;;;5091412;28;20455;-70
2021/09/21 09:37:37;;;;;;;3.00;1.83;;;18.10;88.50;;;;;;5091623;28;20933;-71
2021/09/21 09:40:04;;;;;;;1.60;1.53;;;18.20;88.40;;;;;;5090997;28;20561;-70
2021/09/21 09:42:34;;;;;;;1.73;1.73;;;18.00;87.70;;;;;;5091194;28;20491;-69
2021/09/21 09:45:02;;;;;;;1.93;1.37;;;17.90;86.80;;;;;;5090048;28;20543;-71
2021/09/21 09:47:31;;;;;;;1.60;1.40;;;17.80;86.90;;;;;;5090586;28;20455;-71
2021/09/21 09:49:58;;;;;;;2.30;2.07;;;17.90;88.80;;;;;;5088656;28;20537;-71
2021/09/21 09:52:25;;;;;;;1.93;1.67;;;18.00;89.30;;;;;;5090902;28;20958;-70
2021/09/21 09:54:52;;;;;;;1.43;1.40;;;18.40;88.00;;;;;;5091252;28;20943;-70
2021/09/21 09:57:20;;;;;;;2.37;1.77;;;18.70;87.30;;;;;;5091235;28;20486;-70
2021/09/21 09:59:48;;;;;;;3.73;1.90;;;18.80;86.80;;;;;;5090802;28;20509;-72
2021/09/21 10:02:16;;;;;;;1.53;1.47;;;19.00;85.70;;;;;;5091061;28;21003;-70
2021/09/21 10:04:45;;;;;;;1.77;1.67;;;19.20;85.40;;;;;;5091119;28;21022;-71
2021/09/21 10:07:12;;;;;;;2.70;2.17;;;19.30;84.70;;;;;;5091004;28;20515;-71
2021/09/21 10:09:42;;;;;;;2.87;1.90;;;19.30;83.70;;;;;;5091068;28;20483;-71
2021/09/21 10:12:12;;;;;;;1.60;1.33;;;19.20;83.60;;;;;;5090898;28;20447;-70
2021/09/21 10:14:41;;;;;;;2.43;1.77;;;19.00;84.90;;;;;;5090940;28;20862;-70
2021/09/21 10:17:08;;;;;;;2.07;1.43;;;19.20;84.50;;;;;;5091277;28;20502;-70
2021/09/21 10:19:40;;;;;;;1.50;1.30;;;19.50;85.50;;;;;;5090640;28;20514;-70
2021/09/21 10:22:08;;;;;;;3.00;1.67;;;19.60;83.20;;;;;;5090475;28;20957;-70
2021/09/21 10:24:39;;;;;;;1.70;1.53;;;19.70;84.00;;;;;;5090755;28;20525;-70
2021/09/21 10:27:08;;;;;;;2.17;1.63;;;20.00;83.90;;;;;;5090428;28;20459;-70
2021/09/21 10:29:36;;;;;;;2.33;1.70;;;20.10;82.90;;;;;;5090487;28;20444;-71
2021/09/21 10:32:11;;;;;;;2.90;2.00;;;20.40;82.60;;;;;;5090484;28;20564;-73
2021/09/21 10:34:42;;;;;;;1.77;1.70;;;20.20;85.10;;;;;;5089284;28;20468;-71
2021/09/21 10:37:10;;;;;;;2.37;1.97;;;20.50;83.70;;;;;;5090033;28;20553;-72
2021/09/21 10:39:38;;;;;;;2.80;2.00;;;20.80;83.50;;;;;;5090347;28;20537;-74
2021/09/21 10:42:07;;;;;;;2.47;1.60;;;21.00;81.60;;;;;;5090136;28;20553;-73
2021/09/21 10:44:51;;;;;;;2.07;1.50;;;21.00;80.40;;;;;;5089199;28;20492;-73
2021/09/21 10:47:22;;;;;;;3.30;1.90;;;21.00;79.90;;;;;;5089058;28;20478;-72
2021/09/21 10:49:49;;;;;;;2.73;1.70;;;20.80;81.80;;;;;;5087709;28;20962;-74
2021/09/21 10:52:25;;;;;;;1.83;1.63;;;20.90;81.30;;;;;;5096138;28;20456;-73
2021/09/21 10:54:54;;;;;;;2.43;1.60;;;21.10;83.40;;;;;;5090161;28;20452;-73
2021/09/21 10:57:29;;;;;;;1.70;1.47;;;21.20;81.90;;;;;;5089867;28;20533;-72
2021/09/21 10:59:57;;;;;;;1.67;1.33;;;21.50;80.80;;;;;;5089801;28;20482;-73
2021/09/21 11:02:26;;;;;;;2.87;1.93;;;21.70;79.00;;;;;;5089785;28;20515;-73
2021/09/21 11:04:53;;;;;;;2.80;1.47;;;21.90;81.20;;;;;;5089905;28;20837;-72
2021/09/21 11:07:24;;;;;;;2.03;1.60;;;22.10;80.00;;;;;;5090080;28;20570;-72
2021/09/21 11:09:53;;;;;;;2.63;1.87;;;21.90;81.60;;;;;;5088294;28;20518;-73
2021/09/21 11:12:25;;;;;;;2.87;2.00;;;22.10;79.80;;;;;;5089715;28;20456;-73
2021/09/21 11:14:57;;;;;;;1.97;1.60;;;21.90;78.40;;;;;;5090037;28;20460;-73
2021/09/21 11:17:32;;;;;;;3.10;1.80;;;21.50;79.30;;;;;;5090040;28;20499;-72
2021/09/21 11:20:03;;;;;;;2.53;1.90;;;21.00;80.10;;;;;;5090039;28;20464;-72
2021/09/21 11:22:32;;;;;;;1.83;1.50;;;20.70;82.40;;;;;;5081506;28;20782;-74
2021/09/21 11:25:03;;;;;;;2.13;1.50;;;20.80;81.10;;;;;;5089691;28;20548;-73
2021/09/21 11:27:30;;;;;;;1.87;1.60;;;20.60;83.50;;;;;;5089617;28;20525;-74
2021/09/21 11:30:03;;;;;;;1.97;1.37;;;20.70;81.30;;;;;;5090006;28;20879;-75
2021/09/21 11:32:30;;;;;;;2.40;1.80;;;20.90;80.20;;;;;;5089596;28;20530;-73
2021/09/21 11:34:59;;;;;;;1.73;1.57;;;20.80;81.80;;;;;;5089796;28;20492;-74
2021/09/21 11:37:27;;;;;;;3.73;1.60;;;20.70;82.20;;;;;;5089409;28;20498;-73
2021/09/21 11:39:56;;;;;;;2.60;1.73;;;20.40;84.70;;;;;;5089448;28;20464;-70
2021/09/21 11:42:24;;;;;;;3.50;2.23;;;20.00;84.20;;;;;;5089095;28;20526;-70
2021/09/21 11:44:57;;;;;;;2.63;1.70;;;19.80;85.20;;;;;;5089423;28;20460;-71
2021/09/21 11:47:24;;;;;;;2.63;2.10;;;19.70;87.20;;;;;;5087725;28;20460;-70
2021/09/21 11:49:55;;;;;;;3.03;2.20;;;19.90;86.30;;;;;;5086729;28;21020;-72
2021/09/21 11:52:24;;;;;;;1.43;1.40;;;20.30;84.40;;;;;;5088899;28;20523;-71
2021/09/21 11:54:51;;;;;;;2.10;1.97;;;20.90;84.10;;;;;;5089149;28;20456;-71
2021/09/21 11:57:22;;;;;;;1.97;1.50;;;21.10;88.90;;;;;;5088847;28;20484;-70
2021/09/21 11:59:49;;;;;;;2.60;1.93;;;21.00;83.00;;;;;;5088715;28;21019;-72
2021/09/21 12:02:19;;;;;;;2.43;1.70;;;21.00;83.70;;;;;;5088752;28;20468;-71
2021/09/21 12:04:47;;;;;;;2.47;1.43;;;20.80;83.90;;;;;;5090235;28;20460;-69
2021/09/21 12:07:15;;;;;;;2.70;1.70;;;20.70;93.10;;;;;;5091464;28;20459;-72
2021/09/21 12:09:44;;;;;;;2.70;2.37;;;20.60;85.30;;;;;;5091393;28;20485;-71
2021/09/21 12:12:21;;;;;;;2.27;1.60;;;20.50;83.80;;;;;;5091296;28;20496;-71
2021/09/21 12:14:57;;;;;;;4.00;2.27;;;20.40;84.50;;;;;;5091512;28;20483;-71
2021/09/21 12:17:25;;;;;;;1.83;1.43;;;20.50;84.70;;;;;;5091620;28;20487;-71
2021/09/21 12:19:58;;;;;;;1.97;1.73;;;20.40;83.00;;;;;;5091381;28;20479;-72
2021/09/21 12:22:25;;;;;;;1.97;1.70;;;20.20;83.80;;;;;;5091131;28;20944;-72
2021/09/21 12:24:53;;;;;;;2.40;1.77;;;20.20;84.60;;;;;;5091268;28;20489;-71
2021/09/21 12:27:24;;;;;;;2.73;1.80;;;20.20;84.50;;;;;;5091253;28;20463;-70
2021/09/21 12:29:51;;;;;;;2.20;2.00;;;20.20;83.80;;;;;;5091506;28;20451;-71
2021/09/21 12:32:25;;;;;;;2.27;1.60;;;20.20;85.00;;;;;;5090891;28;20532;-71
2021/09/21 12:35:01;;;;;;;1.87;1.70;;;20.20;84.80;;;;;;5091474;28;20452;-69
2021/09/21 12:37:28;;;;;;;2.03;1.37;;;20.30;83.40;;;;;;5090852;28;21030;-69
2021/09/21 12:39:58;;;;;;;4.10;1.77;;;20.50;84.00;;;;;;5090090;28;20451;-71
2021/09/21 12:42:25;;;;;;;1.53;1.47;;;20.70;81.40;;;;;;5090935;28;20769;-70
2021/09/21 12:44:58;;;;;;;1.77;1.37;;;20.80;81.80;;;;;;5091172;28;20452;-72
2021/09/21 12:47:27;;;;;;;1.40;1.40;;;20.70;83.00;;;;;;5091374;28;20459;-70
2021/09/21 12:49:54;;;;;;;3.00;1.73;;;20.70;82.10;;;;;;5091134;28;20444;-70
2021/09/21 12:52:29;;;;;;;2.40;1.70;;;20.90;81.80;;;;;;5091029;28;20484;-70
2021/09/21 12:54:57;;;;;;;3.30;2.30;;;21.00;82.40;;;;;;5091015;28;20532;-71
2021/09/21 12:57:24;;;;;;;2.20;1.80;;;20.90;81.20;;;;;;5091253;28;20452;-70
2021/09/21 12:59:53;;;;;;;2.67;2.03;;;20.50;82.20;;;;;;5091161;28;20460;-70
2021/09/21 13:02:21;;;;;;;1.73;1.50;;;20.30;85.40;;;;;;5090811;28;20459;-70